createdAt,value
2023-01-04T00:02:30.870Z,8.82
2023-01-04T00:05:33.298Z,7.75
2023-01-04T00:08:35.624Z,7.28
2023-01-04T00:11:37.888Z,4.57
2023-01-04T00:14:40.150Z,10.00
2023-01-04T00:17:44.050Z,4.35
2023-01-04T00:20:46.255Z,2.67
2023-01-04T00:23:50.296Z,11.32
2023-01-04T00:26:52.529Z,5.32
2023-01-04T00:29:55.619Z,2.17
2023-01-04T00:32:59.320Z,5.60
2023-01-04T00:36:05.659Z,5.85
2023-01-04T00:39:14.311Z,13.18
2023-01-04T00:42:16.676Z,7.35
2023-01-04T00:45:18.902Z,6.20
2023-01-04T00:48:23.705Z,5.70
2023-01-04T00:51:26.071Z,10.57
2023-01-04T00:54:28.466Z,3.28
2023-01-04T00:57:30.773Z,11.35
2023-01-04T01:00:33.079Z,5.60
2023-01-04T01:03:38.960Z,4.95
2023-01-04T01:06:41.412Z,5.13
2023-01-04T01:09:43.736Z,3.75
2023-01-04T01:12:46.015Z,8.15
2023-01-04T01:15:48.637Z,9.85
2023-01-04T01:18:53.454Z,7.38
2023-01-04T01:21:57.400Z,3.83
2023-01-04T01:25:00.007Z,5.25
2023-01-04T01:28:02.320Z,8.23
2023-01-04T01:31:08.858Z,4.22
2023-01-04T01:34:12.757Z,10.60
2023-01-04T01:37:16.058Z,8.68
2023-01-04T01:40:18.431Z,5.50
2023-01-04T01:43:22.722Z,2.92
2023-01-04T01:46:27.642Z,12.18
2023-01-04T01:49:33.673Z,9.65
2023-01-04T01:52:38.712Z,8.32
2023-01-04T01:55:41.721Z,6.13
2023-01-04T01:58:48.030Z,4.88
2023-01-04T02:01:50.503Z,4.43
2023-01-04T02:04:55.037Z,5.72
2023-01-04T02:07:57.501Z,2.67
2023-01-04T02:10:59.925Z,9.85
2023-01-04T02:14:21.569Z,5.43
2023-01-04T02:17:34.479Z,6.63
2023-01-04T02:20:43.615Z,7.15
2023-01-04T02:24:09.077Z,8.35
2023-01-04T02:27:34.262Z,6.10
2023-01-04T02:31:16.184Z,5.35
2023-01-04T02:34:23.911Z,3.97
2023-01-04T02:37:30.235Z,6.00
2023-01-04T02:40:37.430Z,7.00
2023-01-04T02:44:03.873Z,6.25
2023-01-04T02:47:10.666Z,7.70
2023-01-04T02:50:33.924Z,7.22
2023-01-04T02:53:39.017Z,5.43
2023-01-04T02:56:53.433Z,4.85
2023-01-04T03:00:23.110Z,5.72
2023-01-04T03:03:48.671Z,6.88
2023-01-04T03:06:58.559Z,3.47
2023-01-04T03:10:05.924Z,4.60
2023-01-04T03:13:11.897Z,3.80
2023-01-04T03:16:17.819Z,1.73
2023-01-04T03:19:41.528Z,2.50
2023-01-04T03:23:05.429Z,1.80
2023-01-04T03:26:29.582Z,2.05
2023-01-04T03:29:54.132Z,3.15
2023-01-04T03:33:17.326Z,3.85
2023-01-04T03:36:29.289Z,2.65
2023-01-04T03:40:06.141Z,1.40
2023-01-04T03:43:34.341Z,1.50
2023-01-04T03:46:57.968Z,1.30
2023-01-04T03:50:04.425Z,4.78
2023-01-04T03:53:09.118Z,2.83
2023-01-04T03:56:11.942Z,1.73
2023-01-04T03:59:14.155Z,5.03
2023-01-04T04:02:19.546Z,2.65
2023-01-04T04:05:43.464Z,2.17
2023-01-04T04:08:47.107Z,2.10
2023-01-04T04:11:49.614Z,1.23
2023-01-04T04:14:51.857Z,1.42
2023-01-04T04:17:54.087Z,1.85
2023-01-04T04:20:59.370Z,3.72
2023-01-04T04:24:03.148Z,1.83
2023-01-04T04:27:05.533Z,4.32
2023-01-04T04:30:08.812Z,4.03
2023-01-04T04:33:11.103Z,2.08
2023-01-04T04:36:13.525Z,1.98
2023-01-04T04:39:17.455Z,7.43
2023-01-04T04:42:19.641Z,1.15
2023-01-04T04:45:22.696Z,3.90
2023-01-04T04:48:24.995Z,2.20
2023-01-04T04:51:27.527Z,4.40
2023-01-04T04:54:31.264Z,3.05
2023-01-04T04:57:33.572Z,2.85
2023-01-04T05:00:36.249Z,4.60
2023-01-04T05:03:38.818Z,3.28
2023-01-04T05:06:41.230Z,4.05
2023-01-04T05:09:44.837Z,0.40
2023-01-04T05:13:03.507Z,3.10
2023-01-04T05:16:07.406Z,1.80
2023-01-04T05:19:09.910Z,2.75
2023-01-04T05:22:12.172Z,2.83
2023-01-04T05:25:16.611Z,2.08
2023-01-04T05:28:19.837Z,0.73
2023-01-04T05:31:22.401Z,1.00
2023-01-04T05:34:27.344Z,1.52
2023-01-04T05:37:29.769Z,1.65
2023-01-04T05:40:51.073Z,0.30
2023-01-04T05:43:53.397Z,1.38
2023-01-04T05:46:55.966Z,2.28
2023-01-04T05:49:58.291Z,1.85
2023-01-04T05:53:00.616Z,0.47
2023-01-04T05:56:06.633Z,1.30
2023-01-04T05:59:09.526Z,1.25
2023-01-04T06:02:17.263Z,0.60
2023-01-04T06:05:19.713Z,1.23
2023-01-04T06:08:21.920Z,1.90
2023-01-04T06:11:28.333Z,0.57
2023-01-04T06:14:30.744Z,2.38
2023-01-04T06:17:33.046Z,1.63
2023-01-04T06:20:38.948Z,1.95
2023-01-04T06:23:41.153Z,0.43
2023-01-04T06:26:45.334Z,0.47
2023-01-04T06:29:47.664Z,7.75
2023-01-04T06:32:49.984Z,3.42
2023-01-04T06:35:55.808Z,1.65
2023-01-04T06:38:58.602Z,1.38
2023-01-04T06:42:06.615Z,0.30
2023-01-04T06:45:10.213Z,1.50
2023-01-04T06:48:12.474Z,0.30
2023-01-04T06:51:20.751Z,1.23
2023-01-04T06:54:22.992Z,2.13
2023-01-04T06:57:27.601Z,0.30
2023-01-04T07:00:57.180Z,1.92
2023-01-04T07:08:54.211Z,0.40
2023-01-04T07:16:04.591Z,3.53
2023-01-04T07:19:21.499Z,9.35
2023-01-04T07:22:37.097Z,2.58
2023-01-04T07:31:45.156Z,1.50
2023-01-04T07:35:23.429Z,1.42
2023-01-04T07:43:13.396Z,2.72
2023-01-04T07:50:23.267Z,2.00
2023-01-04T08:01:59.941Z,0.10
2023-01-04T08:05:03.311Z,0.93
2023-01-04T08:08:18.779Z,0.65
2023-01-04T08:11:30.617Z,1.27
2023-01-04T08:14:33.396Z,1.75
2023-01-04T08:17:38.919Z,0.70
2023-01-04T08:21:08.707Z,1.55
2023-01-04T08:24:13.827Z,0.30
2023-01-04T08:27:35.866Z,1.38
2023-01-04T08:31:06.910Z,1.17
2023-01-04T08:34:09.893Z,0.88
2023-01-04T08:37:12.290Z,1.35
2023-01-04T08:44:54.102Z,5.65
2023-01-04T08:47:59.710Z,1.05
2023-01-04T08:51:45.231Z,3.75
2023-01-04T08:54:57.948Z,2.78
2023-01-04T08:58:00.775Z,2.70
2023-01-04T09:01:19.700Z,1.38
2023-01-04T09:04:25.056Z,2.63
2023-01-04T09:07:37.803Z,1.20
2023-01-04T09:10:40.395Z,0.75
2023-01-04T09:13:43.746Z,1.17
2023-01-04T09:16:47.510Z,0.63
2023-01-04T09:19:49.823Z,2.38
2023-01-04T09:22:52.148Z,0.70
2023-01-04T09:25:54.603Z,1.88
2023-01-04T09:28:57.956Z,1.95
2023-01-04T09:32:01.775Z,1.95
2023-01-04T09:35:04.546Z,1.48
2023-01-04T09:38:06.970Z,2.05
2023-01-04T09:41:20.472Z,0.52
2023-01-04T09:45:03.037Z,0.82
2023-01-04T09:47:57.892Z,1.08
2023-01-04T09:51:02.263Z,1.63
2023-01-04T09:54:08.788Z,6.60
2023-01-04T09:57:18.405Z,1.33
2023-01-04T10:00:24.234Z,0.52
2023-01-04T10:03:31.767Z,3.40
2023-01-04T10:06:34.841Z,0.63
2023-01-04T10:09:37.144Z,4.68
2023-01-04T10:12:45.630Z,1.45
2023-01-04T10:15:52.110Z,2.13
2023-01-04T10:19:59.880Z,1.85
2023-01-04T10:22:28.878Z,1.65
2023-01-04T10:25:39.334Z,1.90
2023-01-04T10:28:55.374Z,2.90
2023-01-04T10:32:01.649Z,3.45
2023-01-04T10:35:17.457Z,2.85
2023-01-04T10:38:23.822Z,1.75
2023-01-04T10:41:27.179Z,2.05
2023-01-04T10:44:36.562Z,3.92
2023-01-04T10:47:47.066Z,1.52
2023-01-04T10:50:55.580Z,0.90
2023-01-04T10:53:59.229Z,3.05
2023-01-04T10:57:07.144Z,0.85
2023-01-04T11:00:15.172Z,1.58
2023-01-04T11:03:20.301Z,5.47
2023-01-04T11:06:27.669Z,4.13
2023-01-04T11:09:34.217Z,1.58
2023-01-04T11:12:36.556Z,3.28
2023-01-04T11:15:38.843Z,3.17
2023-01-04T11:18:42.311Z,2.95
2023-01-04T11:21:49.601Z,3.33
2023-01-04T11:25:33.171Z,1.58
2023-01-04T11:28:20.839Z,4.72
2023-01-04T11:31:26.726Z,1.42
2023-01-04T11:34:44.854Z,1.17
2023-01-04T11:37:48.523Z,3.80
2023-01-04T11:40:56.917Z,0.85
2023-01-04T11:44:00.704Z,0.68
2023-01-04T11:47:08.321Z,2.05
2023-01-04T11:50:40.197Z,2.08
2023-01-04T11:53:44.412Z,3.40
2023-01-04T11:57:03.628Z,1.13
2023-01-04T12:00:09.815Z,1.15
2023-01-04T12:03:13.433Z,3.13
2023-01-04T12:06:18.119Z,2.40
2023-01-04T12:09:22.020Z,1.10
2023-01-04T12:12:29.015Z,2.75
2023-01-04T12:15:38.622Z,4.55
2023-01-04T12:18:42.839Z,0.63
2023-01-04T12:21:47.708Z,1.25
2023-01-04T12:28:29.820Z,0.60
2023-01-04T12:31:33.749Z,0.20
2023-01-04T12:34:40.101Z,0.15
2023-01-04T12:37:48.402Z,0.20
2023-01-04T12:40:55.825Z,0.20
2023-01-04T12:43:58.060Z,0.22
2023-01-04T12:47:19.024Z,0.20
2023-01-04T12:50:31.829Z,0.10
2023-01-04T12:53:49.599Z,0.17
2023-01-04T12:57:29.537Z,1.80
2023-01-04T13:01:07.782Z,0.65
2023-01-04T13:04:29.805Z,0.55
2023-01-04T13:07:37.614Z,0.50
2023-01-04T13:10:44.394Z,0.15
2023-01-04T13:13:55.576Z,2.38
2023-01-04T13:17:15.231Z,0.13
2023-01-04T13:20:20.591Z,0.55
2023-01-04T13:23:26.387Z,0.00
2023-01-04T13:26:33.951Z,1.10
2023-01-04T13:29:37.674Z,1.55
2023-01-04T13:33:15.078Z,0.25
2023-01-04T13:36:07.335Z,0.75
2023-01-04T13:39:11.660Z,0.20
2023-01-04T13:42:18.790Z,3.30
2023-01-04T13:45:40.385Z,0.70
2023-01-04T13:48:47.909Z,0.08
2023-01-04T13:51:50.162Z,0.40
2023-01-04T13:54:52.761Z,3.15
2023-01-04T13:57:56.600Z,1.33
2023-01-04T14:01:03.680Z,2.70
2023-01-04T14:04:06.767Z,0.77
2023-01-04T14:07:09.781Z,0.25
2023-01-04T14:10:17.987Z,0.63
2023-01-04T14:13:20.812Z,0.00
2023-01-04T14:16:25.930Z,0.20
2023-01-04T14:19:49.964Z,0.25
2023-01-04T14:22:57.196Z,0.90
2023-01-04T14:26:01.503Z,0.75
2023-01-04T14:29:21.814Z,0.00
2023-01-04T14:32:26.280Z,1.20
2023-01-04T14:35:30.277Z,0.73
2023-01-04T14:38:36.189Z,0.17
2023-01-04T14:41:43.852Z,0.50
2023-01-04T14:44:46.162Z,0.20
2023-01-04T14:47:50.183Z,1.08
2023-01-04T14:50:52.676Z,0.17
2023-01-04T14:53:54.884Z,0.15
2023-01-04T14:57:00.065Z,1.17
2023-01-04T15:00:04.228Z,0.77
2023-01-04T15:03:09.661Z,0.40
2023-01-04T15:06:12.585Z,1.98
2023-01-04T15:09:15.113Z,2.17
2023-01-04T15:12:17.380Z,0.30
2023-01-04T15:15:20.826Z,3.20
2023-01-04T15:18:24.871Z,0.10
2023-01-04T15:21:27.259Z,1.52
2023-01-04T15:24:29.510Z,0.28
2023-01-04T15:27:34.526Z,0.20
2023-01-04T15:30:41.245Z,1.75
2023-01-04T15:33:44.925Z,1.90
2023-01-04T15:36:50.511Z,0.30
2023-01-04T15:39:56.883Z,0.20
2023-01-04T15:43:04.063Z,0.28
2023-01-04T15:46:08.548Z,0.57
2023-01-04T15:49:17.148Z,0.90
2023-01-04T15:52:19.980Z,1.40
2023-01-04T15:55:22.266Z,0.50
2023-01-04T15:58:24.624Z,0.80
2023-01-04T16:01:27.356Z,1.83
2023-01-04T16:04:31.484Z,0.80
2023-01-04T16:07:36.379Z,0.60
2023-01-04T16:10:39.026Z,0.30
2023-01-04T16:13:44.989Z,0.32
2023-01-04T16:16:47.355Z,2.08
2023-01-04T16:19:52.910Z,0.65
2023-01-04T16:22:56.654Z,3.20
2023-01-04T16:26:06.195Z,2.45
2023-01-04T16:29:11.677Z,0.47
2023-01-04T16:32:13.835Z,1.42
2023-01-04T16:35:17.712Z,4.28
2023-01-04T16:38:19.904Z,1.95
2023-01-04T16:41:22.420Z,1.15
2023-01-04T16:44:25.167Z,1.35
2023-01-04T16:47:27.503Z,1.92
2023-01-04T16:50:31.898Z,1.75
2023-01-04T16:53:34.719Z,2.47
2023-01-04T16:56:37.398Z,1.45
2023-01-04T16:59:39.999Z,1.08
2023-01-04T17:02:42.517Z,1.70
2023-01-04T17:05:46.222Z,2.90
2023-01-04T17:08:49.912Z,3.25
2023-01-04T17:18:44.728Z,9.10
2023-01-04T17:21:48.634Z,7.95
2023-01-04T17:24:50.929Z,10.98
2023-01-04T17:27:53.191Z,15.27
2023-01-04T17:30:55.832Z,7.75
2023-01-04T17:33:58.245Z,9.82
2023-01-04T17:37:01.949Z,10.80
2023-01-04T17:40:04.845Z,20.70
2023-01-04T17:43:07.235Z,22.75
2023-01-04T17:46:11.162Z,25.65
2023-01-04T17:49:32.126Z,20.40
2023-01-04T17:52:36.172Z,22.35
2023-01-04T17:55:38.684Z,15.73
2023-01-04T17:58:41.294Z,13.30
2023-01-04T18:01:46.632Z,23.00
2023-01-04T18:04:48.912Z,26.40
2023-01-04T18:07:52.544Z,37.28
2023-01-04T18:11:07.444Z,26.25
2023-01-04T18:14:14.217Z,21.90
2023-01-04T18:17:16.982Z,31.23
2023-01-04T18:20:24.602Z,27.27
2023-01-04T18:23:30.315Z,26.88
2023-01-04T18:26:53.547Z,26.63
2023-01-04T18:29:56.631Z,42.10
2023-01-04T18:32:58.943Z,27.20
2023-01-04T18:36:02.145Z,30.35
2023-01-04T18:39:06.094Z,36.63
2023-01-04T18:42:11.164Z,27.55
2023-01-04T18:45:13.412Z,36.72
2023-01-04T18:48:15.644Z,24.77
2023-01-04T18:51:18.514Z,29.27
2023-01-04T18:54:25.068Z,32.85
2023-01-04T18:57:28.583Z,34.20
2023-01-04T19:00:30.859Z,28.85
2023-01-04T19:10:26.160Z,24.52
2023-01-04T19:13:54.025Z,32.58
2023-01-04T19:17:05.305Z,26.80
2023-01-04T19:20:14.163Z,33.38
2023-01-04T19:23:26.515Z,25.98
2023-01-04T19:26:36.605Z,38.13
2023-01-04T19:29:56.501Z,25.33
2023-01-04T19:52:23.161Z,29.80
2023-01-04T19:55:29.810Z,26.33
2023-01-04T19:58:32.392Z,39.17
2023-01-04T20:01:35.201Z,31.17
2023-01-04T20:04:39.489Z,39.90
2023-01-04T20:07:44.292Z,23.98
2023-01-04T20:10:53.186Z,30.67
2023-01-04T20:13:55.719Z,36.60
2023-01-04T20:16:58.482Z,26.02
2023-01-04T20:20:02.476Z,29.48
2023-01-04T20:23:05.907Z,29.00
2023-01-04T20:26:11.856Z,32.55
2023-01-04T20:29:14.348Z,28.83
2023-01-04T20:32:16.904Z,37.38
2023-01-04T20:35:20.992Z,29.77
2023-01-04T20:38:23.549Z,27.23
2023-01-04T20:41:28.132Z,30.90
2023-01-04T20:44:30.591Z,23.45
2023-01-04T20:47:33.269Z,33.85
2023-01-04T20:50:37.478Z,29.77
2023-01-04T20:53:41.572Z,39.00
2023-01-04T20:56:44.035Z,25.67
2023-01-04T20:59:46.686Z,28.60
2023-01-04T21:02:49.483Z,20.02
2023-01-04T21:05:53.608Z,34.67
2023-01-04T21:08:57.289Z,20.30
2023-01-04T21:12:05.008Z,23.55
2023-01-04T21:15:10.313Z,27.58
2023-01-04T21:18:12.921Z,32.42
2023-01-04T21:21:18.045Z,24.75
2023-01-04T21:24:20.446Z,24.35
2023-01-04T21:27:23.392Z,33.22
2023-01-04T21:30:27.087Z,21.98
2023-01-04T21:33:29.785Z,33.70
2023-01-04T21:36:33.516Z,26.70
2023-01-04T21:39:36.110Z,27.63
2023-01-04T21:42:39.042Z,19.23
2023-01-04T21:45:41.551Z,26.02
2023-01-04T21:48:44.710Z,31.55
2023-01-04T21:51:48.594Z,23.00
2023-01-04T21:54:51.069Z,28.45
2023-01-04T21:57:53.579Z,18.95
2023-01-04T22:00:56.356Z,26.15
2023-01-04T22:03:58.882Z,23.33
2023-01-04T22:07:02.630Z,17.00
2023-01-04T22:10:05.529Z,33.05
2023-01-04T22:13:08.408Z,27.88
2023-01-04T22:16:17.984Z,25.95
2023-01-04T22:19:20.737Z,10.82
2023-01-04T22:22:24.646Z,37.25
2023-01-04T22:25:26.958Z,20.08
2023-01-04T22:28:36.330Z,18.50
2023-01-04T22:31:40.495Z,21.47
2023-01-04T22:34:43.072Z,22.17
2023-01-04T22:37:46.832Z,23.77
2023-01-04T22:40:49.057Z,14.93
2023-01-04T22:43:55.540Z,18.15
2023-01-04T22:46:58.203Z,18.10
2023-01-04T22:50:00.591Z,18.35
2023-01-04T22:53:04.241Z,31.63
2023-01-04T22:56:23.170Z,20.88
2023-01-04T22:59:26.832Z,20.50
2023-01-04T23:02:29.210Z,20.25
2023-01-04T23:05:31.636Z,19.60
2023-01-04T23:08:36.134Z,19.30
2023-01-04T23:11:38.926Z,28.83
2023-01-04T23:14:41.282Z,24.25
2023-01-04T23:17:43.615Z,25.90
2023-01-04T23:20:52.764Z,27.08
2023-01-04T23:23:56.528Z,24.08
2023-01-04T23:26:58.823Z,19.25
2023-01-04T23:30:01.167Z,20.00
2023-01-04T23:33:03.539Z,20.70
2023-01-04T23:36:07.472Z,21.73
2023-01-04T23:39:13.345Z,21.30
2023-01-04T23:42:16.345Z,24.83
2023-01-04T23:45:18.660Z,20.08
2023-01-04T23:48:21.001Z,17.35
2023-01-04T23:51:23.265Z,23.27
2023-01-04T23:54:27.206Z,26.25
2023-01-04T23:57:29.624Z,14.40
